sensor_id;sensor_type;location;lat;lon;timestamp;P1;durP1;ratioP1;P2;durP2;ratioP2
58460;SDS011;45558;37.752;-97.822;2023-02-10T00:01:24;13.45;;;3.00;;
58460;SDS011;45558;37.752;-97.822;2023-02-10T00:03:51;10.25;;;2.95;;
58460;SDS011;45558;37.752;-97.822;2023-02-10T00:06:18;28.05;;;4.00;;
58460;SDS011;45558;37.752;-97.822;2023-02-10T00:08:48;11.20;;;2.70;;
58460;SDS011;45558;37.752;-97.822;2023-02-10T00:11:15;13.45;;;2.97;;
58460;SDS011;45558;37.752;-97.822;2023-02-10T00:13:41;13.55;;;2.88;;
58460;SDS011;45558;37.752;-97.822;2023-02-10T00:16:07;15.23;;;2.83;;
58460;SDS011;45558;37.752;-97.822;2023-02-10T00:18:36;15.50;;;2.42;;
58460;SDS011;45558;37.752;-97.822;2023-02-10T00:21:06;17.77;;;2.88;;
58460;SDS011;45558;37.752;-97.822;2023-02-10T00:23:32;18.95;;;3.47;;
58460;SDS011;45558;37.752;-97.822;2023-02-10T00:26:01;13.73;;;2.30;;
58460;SDS011;45558;37.752;-97.822;2023-02-10T00:28:27;11.35;;;2.30;;
58460;SDS011;45558;37.752;-97.822;2023-02-10T00:30:53;15.85;;;2.97;;
58460;SDS011;45558;37.752;-97.822;2023-02-10T00:33:19;11.27;;;2.45;;
58460;SDS011;45558;37.752;-97.822;2023-02-10T00:35:44;14.25;;;2.08;;
58460;SDS011;45558;37.752;-97.822;2023-02-10T00:38:10;19.67;;;2.22;;
58460;SDS011;45558;37.752;-97.822;2023-02-10T00:40:36;10.82;;;1.90;;
58460;SDS011;45558;37.752;-97.822;2023-02-10T00:43:02;11.65;;;2.22;;
58460;SDS011;45558;37.752;-97.822;2023-02-10T00:45:27;12.82;;;2.67;;
58460;SDS011;45558;37.752;-97.822;2023-02-10T00:47:53;15.02;;;3.25;;
58460;SDS011;45558;37.752;-97.822;2023-02-10T00:50:19;9.40;;;1.77;;
58460;SDS011;45558;37.752;-97.822;2023-02-10T00:52:44;12.00;;;2.65;;
58460;SDS011;45558;37.752;-97.822;2023-02-10T00:55:10;6.68;;;1.30;;
58460;SDS011;45558;37.752;-97.822;2023-02-10T00:57:36;15.60;;;2.00;;
58460;SDS011;45558;37.752;-97.822;2023-02-10T01:00:02;12.00;;;1.83;;
58460;SDS011;45558;37.752;-97.822;2023-02-10T01:02:28;13.55;;;2.13;;
58460;SDS011;45558;37.752;-97.822;2023-02-10T01:04:54;8.25;;;1.75;;
58460;SDS011;45558;37.752;-97.822;2023-02-10T01:07:20;11.43;;;2.15;;
58460;SDS011;45558;37.752;-97.822;2023-02-10T01:09:45;23.55;;;5.55;;
58460;SDS011;45558;37.752;-97.822;2023-02-10T01:14:36;15.70;;;4.13;;
58460;SDS011;45558;37.752;-97.822;2023-02-10T01:17:15;17.60;;;4.07;;
58460;SDS011;45558;37.752;-97.822;2023-02-10T01:19:40;16.40;;;3.75;;
58460;SDS011;45558;37.752;-97.822;2023-02-10T01:22:06;15.25;;;4.05;;
58460;SDS011;45558;37.752;-97.822;2023-02-10T01:24:32;15.15;;;5.00;;
58460;SDS011;45558;37.752;-97.822;2023-02-10T01:26:57;21.83;;;4.07;;
58460;SDS011;45558;37.752;-97.822;2023-02-10T01:29:23;8.50;;;3.50;;
58460;SDS011;45558;37.752;-97.822;2023-02-10T01:31:48;17.58;;;4.40;;
58460;SDS011;45558;37.752;-97.822;2023-02-10T01:34:14;11.40;;;3.60;;
58460;SDS011;45558;37.752;-97.822;2023-02-10T01:36:40;21.15;;;4.57;;
58460;SDS011;45558;37.752;-97.822;2023-02-10T01:39:06;19.95;;;3.70;;
58460;SDS011;45558;37.752;-97.822;2023-02-10T01:41:31;17.15;;;5.55;;
58460;SDS011;45558;37.752;-97.822;2023-02-10T01:46:44;15.00;;;3.90;;
58460;SDS011;45558;37.752;-97.822;2023-02-10T01:49:11;15.55;;;3.50;;
58460;SDS011;45558;37.752;-97.822;2023-02-10T01:51:51;20.10;;;2.92;;
58460;SDS011;45558;37.752;-97.822;2023-02-10T01:54:51;15.18;;;3.38;;
58460;SDS011;45558;37.752;-97.822;2023-02-10T01:57:20;13.05;;;3.53;;
58460;SDS011;45558;37.752;-97.822;2023-02-10T01:59:46;15.13;;;3.95;;
58460;SDS011;45558;37.752;-97.822;2023-02-10T02:02:12;17.50;;;4.18;;
58460;SDS011;45558;37.752;-97.822;2023-02-10T02:04:41;17.85;;;3.47;;
58460;SDS011;45558;37.752;-97.822;2023-02-10T02:07:17;17.27;;;3.85;;
58460;SDS011;45558;37.752;-97.822;2023-02-10T02:09:44;10.50;;;3.17;;
58460;SDS011;45558;37.752;-97.822;2023-02-10T02:12:44;13.48;;;4.05;;
58460;SDS011;45558;37.752;-97.822;2023-02-10T02:37:25;11.77;;;3.00;;
58460;SDS011;45558;37.752;-97.822;2023-02-10T02:39:53;10.43;;;2.63;;
58460;SDS011;45558;37.752;-97.822;2023-02-10T02:53:58;11.77;;;2.55;;
58460;SDS011;45558;37.752;-97.822;2023-02-10T03:04:22;12.55;;;3.35;;
58460;SDS011;45558;37.752;-97.822;2023-02-10T03:06:52;18.08;;;3.83;;
58460;SDS011;45558;37.752;-97.822;2023-02-10T03:09:18;29.30;;;8.27;;
58460;SDS011;45558;37.752;-97.822;2023-02-10T03:11:43;15.68;;;5.07;;
58460;SDS011;45558;37.752;-97.822;2023-02-10T03:14:09;26.95;;;8.45;;
58460;SDS011;45558;37.752;-97.822;2023-02-10T03:16:35;13.32;;;3.83;;
58460;SDS011;45558;37.752;-97.822;2023-02-10T03:19:00;5.30;;;1.60;;
58460;SDS011;45558;37.752;-97.822;2023-02-10T03:21:26;16.38;;;2.03;;
58460;SDS011;45558;37.752;-97.822;2023-02-10T03:23:52;16.23;;;2.63;;
58460;SDS011;45558;37.752;-97.822;2023-02-10T03:26:17;13.68;;;2.30;;
58460;SDS011;45558;37.752;-97.822;2023-02-10T03:28:43;9.40;;;2.10;;
58460;SDS011;45558;37.752;-97.822;2023-02-10T03:31:08;15.18;;;4.70;;
58460;SDS011;45558;37.752;-97.822;2023-02-10T03:33:34;14.63;;;3.88;;
58460;SDS011;45558;37.752;-97.822;2023-02-10T03:36:00;13.25;;;3.70;;
58460;SDS011;45558;37.752;-97.822;2023-02-10T03:38:27;8.98;;;1.95;;
58460;SDS011;45558;37.752;-97.822;2023-02-10T03:40:53;9.43;;;2.75;;
58460;SDS011;45558;37.752;-97.822;2023-02-10T03:43:19;18.30;;;4.35;;
58460;SDS011;45558;37.752;-97.822;2023-02-10T03:45:45;9.85;;;1.75;;
58460;SDS011;45558;37.752;-97.822;2023-02-10T03:48:11;17.90;;;2.20;;
58460;SDS011;45558;37.752;-97.822;2023-02-10T03:50:37;12.10;;;3.00;;
58460;SDS011;45558;37.752;-97.822;2023-02-10T03:53:03;16.65;;;2.35;;
58460;SDS011;45558;37.752;-97.822;2023-02-10T03:55:29;17.00;;;2.42;;
58460;SDS011;45558;37.752;-97.822;2023-02-10T03:57:55;10.05;;;1.60;;
58460;SDS011;45558;37.752;-97.822;2023-02-10T04:00:21;14.32;;;1.92;;
58460;SDS011;45558;37.752;-97.822;2023-02-10T04:02:47;15.38;;;4.07;;
58460;SDS011;45558;37.752;-97.822;2023-02-10T04:05:13;17.45;;;3.88;;
58460;SDS011;45558;37.752;-97.822;2023-02-10T04:07:39;14.05;;;3.75;;
58460;SDS011;45558;37.752;-97.822;2023-02-10T04:10:04;4.93;;;1.73;;
58460;SDS011;45558;37.752;-97.822;2023-02-10T04:12:30;19.05;;;4.20;;
58460;SDS011;45558;37.752;-97.822;2023-02-10T04:14:56;16.17;;;4.30;;
58460;SDS011;45558;37.752;-97.822;2023-02-10T04:17:22;17.45;;;4.88;;
58460;SDS011;45558;37.752;-97.822;2023-02-10T04:19:48;23.77;;;5.50;;
58460;SDS011;45558;37.752;-97.822;2023-02-10T04:22:14;21.45;;;5.45;;
58460;SDS011;45558;37.752;-97.822;2023-02-10T04:24:39;14.20;;;4.97;;
58460;SDS011;45558;37.752;-97.822;2023-02-10T04:27:05;17.38;;;4.47;;
58460;SDS011;45558;37.752;-97.822;2023-02-10T04:29:31;22.15;;;4.35;;
58460;SDS011;45558;37.752;-97.822;2023-02-10T04:31:58;13.75;;;3.13;;
58460;SDS011;45558;37.752;-97.822;2023-02-10T04:34:24;13.57;;;3.80;;
58460;SDS011;45558;37.752;-97.822;2023-02-10T04:36:50;17.63;;;4.75;;
58460;SDS011;45558;37.752;-97.822;2023-02-10T04:39:15;16.20;;;2.85;;
58460;SDS011;45558;37.752;-97.822;2023-02-10T04:41:41;15.60;;;2.58;;
58460;SDS011;45558;37.752;-97.822;2023-02-10T04:44:06;7.45;;;2.17;;
58460;SDS011;45558;37.752;-97.822;2023-02-10T04:46:32;18.98;;;2.95;;
58460;SDS011;45558;37.752;-97.822;2023-02-10T04:48:58;13.30;;;1.55;;
58460;SDS011;45558;37.752;-97.822;2023-02-10T04:51:23;11.55;;;1.77;;
58460;SDS011;45558;37.752;-97.822;2023-02-10T04:53:49;10.55;;;3.28;;
58460;SDS011;45558;37.752;-97.822;2023-02-10T04:56:15;14.07;;;1.75;;
58460;SDS011;45558;37.752;-97.822;2023-02-10T04:58:41;10.52;;;1.70;;
58460;SDS011;45558;37.752;-97.822;2023-02-10T05:03:38;6.45;;;1.60;;
58460;SDS011;45558;37.752;-97.822;2023-02-10T05:06:09;8.88;;;1.55;;
58460;SDS011;45558;37.752;-97.822;2023-02-10T05:08:38;7.53;;;1.75;;
58460;SDS011;45558;37.752;-97.822;2023-02-10T05:11:09;12.52;;;1.98;;
58460;SDS011;45558;37.752;-97.822;2023-02-10T05:13:35;13.95;;;2.38;;
58460;SDS011;45558;37.752;-97.822;2023-02-10T05:16:01;8.50;;;1.30;;
58460;SDS011;45558;37.752;-97.822;2023-02-10T05:18:29;6.57;;;1.83;;
58460;SDS011;45558;37.752;-97.822;2023-02-10T05:20:55;6.00;;;1.30;;
58460;SDS011;45558;37.752;-97.822;2023-02-10T05:23:21;9.18;;;1.30;;
58460;SDS011;45558;37.752;-97.822;2023-02-10T05:25:46;15.48;;;1.35;;
58460;SDS011;45558;37.752;-97.822;2023-02-10T05:31:34;14.10;;;3.10;;
58460;SDS011;45558;37.752;-97.822;2023-02-10T05:33:59;14.00;;;2.72;;
58460;SDS011;45558;37.752;-97.822;2023-02-10T05:36:25;7.53;;;1.70;;
58460;SDS011;45558;37.752;-97.822;2023-02-10T05:38:51;12.60;;;1.48;;
58460;SDS011;45558;37.752;-97.822;2023-02-10T05:41:35;6.55;;;1.42;;
58460;SDS011;45558;37.752;-97.822;2023-02-10T05:44:00;13.18;;;1.83;;
58460;SDS011;45558;37.752;-97.822;2023-02-10T05:46:26;5.47;;;1.40;;
58460;SDS011;45558;37.752;-97.822;2023-02-10T05:48:52;10.25;;;1.80;;
58460;SDS011;45558;37.752;-97.822;2023-02-10T05:51:18;9.35;;;1.90;;
58460;SDS011;45558;37.752;-97.822;2023-02-10T05:53:44;17.05;;;3.85;;
58460;SDS011;45558;37.752;-97.822;2023-02-10T05:56:10;4.70;;;1.17;;
58460;SDS011;45558;37.752;-97.822;2023-02-10T05:58:36;10.57;;;1.65;;
58460;SDS011;45558;37.752;-97.822;2023-02-10T06:01:05;1.55;;;0.90;;
58460;SDS011;45558;37.752;-97.822;2023-02-10T06:03:31;8.63;;;1.70;;
58460;SDS011;45558;37.752;-97.822;2023-02-10T06:05:57;4.95;;;1.20;;
58460;SDS011;45558;37.752;-97.822;2023-02-10T06:08:22;2.50;;;0.95;;
58460;SDS011;45558;37.752;-97.822;2023-02-10T06:10:48;4.50;;;0.85;;
58460;SDS011;45558;37.752;-97.822;2023-02-10T06:13:14;3.55;;;1.42;;
58460;SDS011;45558;37.752;-97.822;2023-02-10T06:19:01;7.85;;;2.00;;
58460;SDS011;45558;37.752;-97.822;2023-02-10T06:21:28;1.90;;;0.90;;
58460;SDS011;45558;37.752;-97.822;2023-02-10T06:23:54;3.53;;;1.00;;
58460;SDS011;45558;37.752;-97.822;2023-02-10T06:26:20;7.40;;;1.10;;
58460;SDS011;45558;37.752;-97.822;2023-02-10T06:28:46;3.45;;;0.93;;
58460;SDS011;45558;37.752;-97.822;2023-02-10T06:31:11;2.70;;;0.90;;
58460;SDS011;45558;37.752;-97.822;2023-02-10T06:33:37;9.20;;;1.20;;
58460;SDS011;45558;37.752;-97.822;2023-02-10T06:39:24;2.78;;;0.68;;
58460;SDS011;45558;37.752;-97.822;2023-02-10T06:41:50;6.80;;;1.65;;
58460;SDS011;45558;37.752;-97.822;2023-02-10T06:44:15;5.22;;;0.77;;
58460;SDS011;45558;37.752;-97.822;2023-02-10T06:46:41;2.67;;;0.90;;
58460;SDS011;45558;37.752;-97.822;2023-02-10T06:49:07;3.38;;;0.70;;
58460;SDS011;45558;37.752;-97.822;2023-02-10T06:51:32;8.30;;;3.55;;
58460;SDS011;45558;37.752;-97.822;2023-02-10T06:53:58;1.35;;;0.70;;
58460;SDS011;45558;37.752;-97.822;2023-02-10T06:56:24;5.15;;;0.90;;
58460;SDS011;45558;37.752;-97.822;2023-02-10T06:58:49;3.05;;;0.75;;
58460;SDS011;45558;37.752;-97.822;2023-02-10T07:01:16;2.42;;;0.80;;
58460;SDS011;45558;37.752;-97.822;2023-02-10T07:03:42;4.78;;;0.88;;
58460;SDS011;45558;37.752;-97.822;2023-02-10T07:06:08;4.53;;;0.80;;
58460;SDS011;45558;37.752;-97.822;2023-02-10T07:08:34;2.78;;;0.90;;
58460;SDS011;45558;37.752;-97.822;2023-02-10T07:11:00;2.40;;;0.80;;
58460;SDS011;45558;37.752;-97.822;2023-02-10T07:13:25;4.68;;;0.95;;
58460;SDS011;45558;37.752;-97.822;2023-02-10T07:15:51;2.08;;;0.70;;
58460;SDS011;45558;37.752;-97.822;2023-02-10T07:18:17;1.73;;;0.80;;
58460;SDS011;45558;37.752;-97.822;2023-02-10T07:20:43;2.05;;;0.88;;
58460;SDS011;45558;37.752;-97.822;2023-02-10T07:23:09;2.58;;;1.02;;
58460;SDS011;45558;37.752;-97.822;2023-02-10T07:25:34;3.13;;;1.02;;
58460;SDS011;45558;37.752;-97.822;2023-02-10T07:28:00;3.83;;;1.30;;
58460;SDS011;45558;37.752;-97.822;2023-02-10T07:30:26;3.75;;;1.23;;
58460;SDS011;45558;37.752;-97.822;2023-02-10T07:32:51;1.88;;;0.93;;
58460;SDS011;45558;37.752;-97.822;2023-02-10T07:35:17;0.93;;;0.60;;
58460;SDS011;45558;37.752;-97.822;2023-02-10T07:37:43;4.70;;;0.73;;
58460;SDS011;45558;37.752;-97.822;2023-02-10T07:40:11;2.65;;;0.80;;
58460;SDS011;45558;37.752;-97.822;2023-02-10T07:42:37;2.17;;;0.88;;
58460;SDS011;45558;37.752;-97.822;2023-02-10T07:48:24;3.60;;;1.33;;
58460;SDS011;45558;37.752;-97.822;2023-02-10T07:50:50;5.95;;;1.30;;
58460;SDS011;45558;37.752;-97.822;2023-02-10T07:53:19;5.00;;;1.00;;
58460;SDS011;45558;37.752;-97.822;2023-02-10T07:55:45;4.47;;;1.38;;
58460;SDS011;45558;37.752;-97.822;2023-02-10T07:58:11;4.93;;;1.08;;
58460;SDS011;45558;37.752;-97.822;2023-02-10T08:00:37;2.33;;;1.05;;
58460;SDS011;45558;37.752;-97.822;2023-02-10T08:03:03;1.52;;;0.82;;
58460;SDS011;45558;37.752;-97.822;2023-02-10T08:05:29;2.25;;;0.80;;
58460;SDS011;45558;37.752;-97.822;2023-02-10T08:07:55;2.50;;;1.10;;
58460;SDS011;45558;37.752;-97.822;2023-02-10T08:10:21;1.25;;;0.77;;
58460;SDS011;45558;37.752;-97.822;2023-02-10T08:12:47;0.90;;;0.60;;
58460;SDS011;45558;37.752;-97.822;2023-02-10T08:15:13;1.85;;;0.60;;
58460;SDS011;45558;37.752;-97.822;2023-02-10T08:17:42;2.83;;;1.15;;
58460;SDS011;45558;37.752;-97.822;2023-02-10T08:20:09;2.53;;;0.80;;
58460;SDS011;45558;37.752;-97.822;2023-02-10T08:22:35;5.57;;;1.27;;
58460;SDS011;45558;37.752;-97.822;2023-02-10T08:25:01;5.60;;;1.00;;
58460;SDS011;45558;37.752;-97.822;2023-02-10T08:27:27;4.00;;;1.13;;
58460;SDS011;45558;37.752;-97.822;2023-02-10T08:29:54;2.53;;;0.80;;
58460;SDS011;45558;37.752;-97.822;2023-02-10T08:32:20;12.63;;;3.45;;
58460;SDS011;45558;37.752;-97.822;2023-02-10T08:34:46;2.28;;;1.25;;
58460;SDS011;45558;37.752;-97.822;2023-02-10T08:37:13;1.58;;;0.80;;
58460;SDS011;45558;37.752;-97.822;2023-02-10T08:39:39;3.38;;;0.80;;
58460;SDS011;45558;37.752;-97.822;2023-02-10T08:42:05;6.32;;;2.70;;
58460;SDS011;45558;37.752;-97.822;2023-02-10T08:44:31;1.85;;;0.70;;
58460;SDS011;45558;37.752;-97.822;2023-02-10T08:46:57;2.80;;;1.00;;
58460;SDS011;45558;37.752;-97.822;2023-02-10T08:49:22;3.17;;;0.88;;
58460;SDS011;45558;37.752;-97.822;2023-02-10T08:51:51;2.78;;;1.08;;
58460;SDS011;45558;37.752;-97.822;2023-02-10T08:54:18;3.47;;;1.20;;
58460;SDS011;45558;37.752;-97.822;2023-02-10T08:56:45;4.43;;;0.75;;
58460;SDS011;45558;37.752;-97.822;2023-02-10T08:59:11;5.45;;;1.42;;
58460;SDS011;45558;37.752;-97.822;2023-02-10T09:01:37;3.45;;;1.13;;
58460;SDS011;45558;37.752;-97.822;2023-02-10T09:04:03;4.38;;;1.60;;
58460;SDS011;45558;37.752;-97.822;2023-02-10T09:06:31;5.05;;;2.80;;
58460;SDS011;45558;37.752;-97.822;2023-02-10T09:09:04;5.22;;;1.60;;
58460;SDS011;45558;37.752;-97.822;2023-02-10T09:11:31;3.05;;;1.67;;
58460;SDS011;45558;37.752;-97.822;2023-02-10T09:13:57;9.48;;;2.20;;
58460;SDS011;45558;37.752;-97.822;2023-02-10T09:16:23;7.18;;;2.25;;
58460;SDS011;45558;37.752;-97.822;2023-02-10T09:18:49;2.88;;;2.17;;
58460;SDS011;45558;37.752;-97.822;2023-02-10T09:21:16;4.15;;;2.10;;
58460;SDS011;45558;37.752;-97.822;2023-02-10T09:23:43;6.28;;;2.50;;
58460;SDS011;45558;37.752;-97.822;2023-02-10T09:26:09;9.05;;;2.33;;
58460;SDS011;45558;37.752;-97.822;2023-02-10T09:28:34;4.00;;;1.75;;
58460;SDS011;45558;37.752;-97.822;2023-02-10T09:31:03;3.03;;;1.80;;
58460;SDS011;45558;37.752;-97.822;2023-02-10T09:33:30;3.50;;;1.50;;
58460;SDS011;45558;37.752;-97.822;2023-02-10T09:35:55;1.50;;;1.00;;
58460;SDS011;45558;37.752;-97.822;2023-02-10T09:38:21;4.75;;;1.67;;
58460;SDS011;45558;37.752;-97.822;2023-02-10T09:40:50;3.80;;;1.15;;
58460;SDS011;45558;37.752;-97.822;2023-02-10T09:43:45;2.40;;;0.90;;
58460;SDS011;45558;37.752;-97.822;2023-02-10T09:49:08;1.92;;;1.05;;
58460;SDS011;45558;37.752;-97.822;2023-02-10T09:52:27;1.17;;;0.70;;
58460;SDS011;45558;37.752;-97.822;2023-02-10T09:54:26;1.85;;;0.65;;
58460;SDS011;45558;37.752;-97.822;2023-02-10T09:56:57;1.42;;;0.82;;
58460;SDS011;45558;37.752;-97.822;2023-02-10T09:59:28;2.92;;;1.00;;
58460;SDS011;45558;37.752;-97.822;2023-02-10T10:01:59;0.80;;;0.60;;
58460;SDS011;45558;37.752;-97.822;2023-02-10T10:04:28;2.60;;;0.60;;
58460;SDS011;45558;37.752;-97.822;2023-02-10T10:09:43;1.92;;;0.60;;
58460;SDS011;45558;37.752;-97.822;2023-02-10T10:12:11;2.08;;;0.68;;
58460;SDS011;45558;37.752;-97.822;2023-02-10T10:14:40;1.37;;;0.60;;
58460;SDS011;45558;37.752;-97.822;2023-02-10T10:25:48;3.88;;;0.60;;
58460;SDS011;45558;37.752;-97.822;2023-02-10T10:30:54;1.98;;;0.50;;
58460;SDS011;45558;37.752;-97.822;2023-02-10T10:35:51;1.98;;;0.73;;
58460;SDS011;45558;37.752;-97.822;2023-02-10T10:38:21;3.08;;;0.95;;
58460;SDS011;45558;37.752;-97.822;2023-02-10T10:40:49;1.88;;;0.50;;
58460;SDS011;45558;37.752;-97.822;2023-02-10T10:43:23;0.93;;;0.40;;
58460;SDS011;45558;37.752;-97.822;2023-02-10T10:46:13;0.77;;;0.40;;
58460;SDS011;45558;37.752;-97.822;2023-02-10T10:48:40;1.30;;;0.40;;
58460;SDS011;45558;37.752;-97.822;2023-02-10T10:51:07;0.80;;;0.40;;
58460;SDS011;45558;37.752;-97.822;2023-02-10T10:53:44;3.22;;;0.55;;
58460;SDS011;45558;37.752;-97.822;2023-02-10T10:59:50;1.60;;;0.82;;
58460;SDS011;45558;37.752;-97.822;2023-02-10T11:02:10;2.63;;;0.50;;
58460;SDS011;45558;37.752;-97.822;2023-02-10T11:04:37;1.92;;;0.73;;
58460;SDS011;45558;37.752;-97.822;2023-02-10T11:07:08;5.00;;;0.73;;
58460;SDS011;45558;37.752;-97.822;2023-02-10T11:09:36;1.90;;;0.98;;
58460;SDS011;45558;37.752;-97.822;2023-02-10T11:12:06;1.00;;;0.50;;
58460;SDS011;45558;37.752;-97.822;2023-02-10T11:14:46;0.98;;;0.57;;
58460;SDS011;45558;37.752;-97.822;2023-02-10T11:17:26;1.38;;;0.65;;
58460;SDS011;45558;37.752;-97.822;2023-02-10T11:22:37;3.60;;;0.47;;
58460;SDS011;45558;37.752;-97.822;2023-02-10T11:27:54;3.47;;;1.13;;
58460;SDS011;45558;37.752;-97.822;2023-02-10T11:30:38;4.40;;;1.55;;
58460;SDS011;45558;37.752;-97.822;2023-02-10T11:33:05;3.90;;;1.17;;
58460;SDS011;45558;37.752;-97.822;2023-02-10T11:35:46;4.10;;;0.95;;
58460;SDS011;45558;37.752;-97.822;2023-02-10T11:38:19;1.80;;;0.90;;
58460;SDS011;45558;37.752;-97.822;2023-02-10T11:40:50;1.88;;;0.70;;
58460;SDS011;45558;37.752;-97.822;2023-02-10T11:43:17;6.15;;;1.00;;
58460;SDS011;45558;37.752;-97.822;2023-02-10T11:45:53;8.80;;;0.77;;
58460;SDS011;45558;37.752;-97.822;2023-02-10T11:48:24;1.15;;;0.60;;
58460;SDS011;45558;37.752;-97.822;2023-02-10T11:51:04;1.20;;;0.35;;
58460;SDS011;45558;37.752;-97.822;2023-02-10T11:53:37;1.98;;;0.43;;
58460;SDS011;45558;37.752;-97.822;2023-02-10T11:56:05;2.83;;;0.50;;
58460;SDS011;45558;37.752;-97.822;2023-02-10T12:09:09;1.23;;;0.32;;
58460;SDS011;45558;37.752;-97.822;2023-02-10T12:23:28;1.95;;;0.50;;
58460;SDS011;45558;37.752;-97.822;2023-02-10T12:34:18;4.68;;;0.82;;
58460;SDS011;45558;37.752;-97.822;2023-02-10T12:36:56;3.53;;;0.95;;
58460;SDS011;45558;37.752;-97.822;2023-02-10T12:39:32;2.15;;;0.90;;
58460;SDS011;45558;37.752;-97.822;2023-02-10T12:45:19;2.55;;;0.50;;
58460;SDS011;45558;37.752;-97.822;2023-02-10T12:50:29;1.98;;;0.60;;
58460;SDS011;45558;37.752;-97.822;2023-02-10T12:53:09;0.82;;;0.60;;
58460;SDS011;45558;37.752;-97.822;2023-02-10T12:55:44;0.75;;;0.50;;
58460;SDS011;45558;37.752;-97.822;2023-02-10T12:58:41;1.33;;;0.73;;
58460;SDS011;45558;37.752;-97.822;2023-02-10T13:01:24;2.95;;;0.82;;
58460;SDS011;45558;37.752;-97.822;2023-02-10T13:06:54;3.50;;;1.45;;
58460;SDS011;45558;37.752;-97.822;2023-02-10T13:12:21;0.68;;;0.20;;
58460;SDS011;45558;37.752;-97.822;2023-02-10T13:14:52;1.55;;;0.52;;
58460;SDS011;45558;37.752;-97.822;2023-02-10T13:17:41;1.23;;;0.20;;
58460;SDS011;45558;37.752;-97.822;2023-02-10T13:23:31;2.95;;;0.95;;
58460;SDS011;45558;37.752;-97.822;2023-02-10T13:26:07;1.83;;;0.30;;
58460;SDS011;45558;37.752;-97.822;2023-02-10T13:34:44;0.82;;;0.50;;
58460;SDS011;45558;37.752;-97.822;2023-02-10T13:37:16;0.93;;;0.40;;
58460;SDS011;45558;37.752;-97.822;2023-02-10T13:39:52;4.63;;;0.80;;
58460;SDS011;45558;37.752;-97.822;2023-02-10T13:44:56;1.67;;;0.40;;
58460;SDS011;45558;37.752;-97.822;2023-02-10T13:49:56;8.07;;;0.60;;
58460;SDS011;45558;37.752;-97.822;2023-02-10T13:52:27;1.65;;;0.43;;
58460;SDS011;45558;37.752;-97.822;2023-02-10T13:54:58;1.08;;;0.50;;
58460;SDS011;45558;37.752;-97.822;2023-02-10T13:57:31;0.82;;;0.20;;
58460;SDS011;45558;37.752;-97.822;2023-02-10T14:00:19;1.65;;;0.30;;
58460;SDS011;45558;37.752;-97.822;2023-02-10T14:05:35;0.40;;;0.30;;
58460;SDS011;45558;37.752;-97.822;2023-02-10T14:08:13;2.30;;;0.60;;
58460;SDS011;45558;37.752;-97.822;2023-02-10T14:10:40;1.27;;;0.20;;
58460;SDS011;45558;37.752;-97.822;2023-02-10T14:13:28;1.23;;;0.20;;
58460;SDS011;45558;37.752;-97.822;2023-02-10T14:15:56;3.25;;;0.70;;
58460;SDS011;45558;37.752;-97.822;2023-02-10T14:18:27;0.38;;;0.20;;
58460;SDS011;45558;37.752;-97.822;2023-02-10T14:21:02;0.85;;;0.30;;
58460;SDS011;45558;37.752;-97.822;2023-02-10T14:23:31;1.58;;;0.80;;
58460;SDS011;45558;37.752;-97.822;2023-02-10T14:26:03;0.50;;;0.20;;
58460;SDS011;45558;37.752;-97.822;2023-02-10T14:28:33;2.78;;;0.30;;
58460;SDS011;45558;37.752;-97.822;2023-02-10T14:31:05;0.65;;;0.15;;
58460;SDS011;45558;37.752;-97.822;2023-02-10T14:33:37;2.53;;;0.28;;
58460;SDS011;45558;37.752;-97.822;2023-02-10T14:36:04;1.52;;;0.68;;
58460;SDS011;45558;37.752;-97.822;2023-02-10T14:38:39;0.50;;;0.10;;
58460;SDS011;45558;37.752;-97.822;2023-02-10T14:41:06;0.45;;;0.20;;
58460;SDS011;45558;37.752;-97.822;2023-02-10T14:43:34;0.70;;;0.43;;
58460;SDS011;45558;37.752;-97.822;2023-02-10T14:46:01;0.38;;;0.15;;
58460;SDS011;45558;37.752;-97.822;2023-02-10T14:48:27;0.60;;;0.40;;
58460;SDS011;45558;37.752;-97.822;2023-02-10T14:51:38;0.50;;;0.30;;
58460;SDS011;45558;37.752;-97.822;2023-02-10T14:53:46;0.20;;;0.10;;
58460;SDS011;45558;37.752;-97.822;2023-02-10T14:56:21;1.38;;;0.50;;
58460;SDS011;45558;37.752;-97.822;2023-02-10T14:58:49;0.95;;;0.30;;
58460;SDS011;45558;37.752;-97.822;2023-02-10T15:01:32;2.17;;;0.40;;
58460;SDS011;45558;37.752;-97.822;2023-02-10T15:04:00;2.38;;;0.40;;
58460;SDS011;45558;37.752;-97.822;2023-02-10T15:06:27;0.25;;;0.10;;
58460;SDS011;45558;37.752;-97.822;2023-02-10T15:11:38;3.30;;;0.50;;
58460;SDS011;45558;37.752;-97.822;2023-02-10T15:16:59;4.18;;;0.40;;
58460;SDS011;45558;37.752;-97.822;2023-02-10T15:19:27;4.18;;;0.60;;
58460;SDS011;45558;37.752;-97.822;2023-02-10T15:21:53;2.97;;;1.30;;
58460;SDS011;45558;37.752;-97.822;2023-02-10T15:26:46;1.65;;;0.28;;
58460;SDS011;45558;37.752;-97.822;2023-02-10T15:29:14;1.80;;;0.43;;
58460;SDS011;45558;37.752;-97.822;2023-02-10T15:31:42;7.82;;;2.45;;
58460;SDS011;45558;37.752;-97.822;2023-02-10T15:34:23;0.73;;;0.40;;
58460;SDS011;45558;37.752;-97.822;2023-02-10T15:36:55;6.45;;;0.68;;
58460;SDS011;45558;37.752;-97.822;2023-02-10T15:44:40;2.75;;;0.40;;
58460;SDS011;45558;37.752;-97.822;2023-02-10T15:49:44;2.42;;;0.25;;
58460;SDS011;45558;37.752;-97.822;2023-02-10T15:52:21;1.50;;;0.65;;
58460;SDS011;45558;37.752;-97.822;2023-02-10T15:54:51;2.80;;;0.70;;
58460;SDS011;45558;37.752;-97.822;2023-02-10T15:57:19;1.02;;;0.47;;
58460;SDS011;45558;37.752;-97.822;2023-02-10T15:59:45;1.95;;;0.40;;
58460;SDS011;45558;37.752;-97.822;2023-02-10T16:02:15;2.28;;;0.30;;
58460;SDS011;45558;37.752;-97.822;2023-02-10T16:04:41;1.48;;;0.40;;
58460;SDS011;45558;37.752;-97.822;2023-02-10T16:07:09;2.17;;;0.80;;
58460;SDS011;45558;37.752;-97.822;2023-02-10T16:09:48;1.98;;;0.50;;
58460;SDS011;45558;37.752;-97.822;2023-02-10T16:12:15;1.98;;;0.38;;
58460;SDS011;45558;37.752;-97.822;2023-02-10T16:14:41;2.58;;;0.63;;
58460;SDS011;45558;37.752;-97.822;2023-02-10T16:17:08;1.80;;;0.65;;
58460;SDS011;45558;37.752;-97.822;2023-02-10T16:19:33;1.85;;;0.40;;
58460;SDS011;45558;37.752;-97.822;2023-02-10T16:21:59;3.33;;;0.60;;
58460;SDS011;45558;37.752;-97.822;2023-02-10T16:24:26;7.13;;;1.42;;
58460;SDS011;45558;37.752;-97.822;2023-02-10T16:26:56;3.60;;;0.90;;
58460;SDS011;45558;37.752;-97.822;2023-02-10T16:29:23;3.15;;;1.33;;
58460;SDS011;45558;37.752;-97.822;2023-02-10T16:31:50;2.13;;;0.68;;
58460;SDS011;45558;37.752;-97.822;2023-02-10T16:34:17;3.88;;;1.00;;
58460;SDS011;45558;37.752;-97.822;2023-02-10T16:36:43;6.72;;;4.63;;
58460;SDS011;45558;37.752;-97.822;2023-02-10T16:39:15;15.93;;;10.25;;
58460;SDS011;45558;37.752;-97.822;2023-02-10T16:41:44;41.38;;;21.73;;
58460;SDS011;45558;37.752;-97.822;2023-02-10T16:44:11;14.55;;;6.00;;
58460;SDS011;45558;37.752;-97.822;2023-02-10T16:46:36;51.13;;;25.38;;
58460;SDS011;45558;37.752;-97.822;2023-02-10T16:49:03;6.95;;;3.80;;
58460;SDS011;45558;37.752;-97.822;2023-02-10T16:51:29;6.28;;;3.20;;
58460;SDS011;45558;37.752;-97.822;2023-02-10T16:53:55;5.18;;;2.20;;
58460;SDS011;45558;37.752;-97.822;2023-02-10T16:56:21;5.15;;;2.10;;
58460;SDS011;45558;37.752;-97.822;2023-02-10T16:58:48;9.05;;;4.35;;
58460;SDS011;45558;37.752;-97.822;2023-02-10T17:01:14;21.13;;;10.77;;
58460;SDS011;45558;37.752;-97.822;2023-02-10T17:03:41;4.13;;;1.58;;
58460;SDS011;45558;37.752;-97.822;2023-02-10T17:06:07;18.00;;;8.30;;
58460;SDS011;45558;37.752;-97.822;2023-02-10T17:08:35;7.25;;;4.50;;
58460;SDS011;45558;37.752;-97.822;2023-02-10T17:11:01;4.03;;;1.33;;
58460;SDS011;45558;37.752;-97.822;2023-02-10T17:13:26;3.10;;;0.60;;